sensor_id;sensor_type;location;lat;lon;timestamp;temperature;humidity
49489;SHT31;35382;51.484;11.476;2023-01-15T00:01:25;8.67;92.46
49489;SHT31;35382;51.484;11.476;2023-01-15T00:03:06;8.55;93.46
49489;SHT31;35382;51.484;11.476;2023-01-15T00:04:50;8.51;93.84
49489;SHT31;35382;51.484;11.476;2023-01-15T00:06:35;8.44;93.96
49489;SHT31;35382;51.484;11.476;2023-01-15T00:08:16;8.44;93.92
49489;SHT31;35382;51.484;11.476;2023-01-15T00:09:57;8.49;93.40
49489;SHT31;35382;51.484;11.476;2023-01-15T00:11:38;8.45;93.66
49489;SHT31;35382;51.484;11.476;2023-01-15T00:13:19;8.42;93.96
49489;SHT31;35382;51.484;11.476;2023-01-15T00:15:00;8.42;93.84
49489;SHT31;35382;51.484;11.476;2023-01-15T00:16:41;8.40;94.24
49489;SHT31;35382;51.484;11.476;2023-01-15T00:18:22;8.42;93.87
49489;SHT31;35382;51.484;11.476;2023-01-15T00:20:04;8.41;93.90
49489;SHT31;35382;51.484;11.476;2023-01-15T00:21:45;8.45;93.67
49489;SHT31;35382;51.484;11.476;2023-01-15T00:23:27;8.48;93.49
49489;SHT31;35382;51.484;11.476;2023-01-15T00:25:38;8.45;93.76
49489;SHT31;35382;51.484;11.476;2023-01-15T00:27:48;8.48;93.46
49489;SHT31;35382;51.484;11.476;2023-01-15T00:29:31;8.48;93.71
49489;SHT31;35382;51.484;11.476;2023-01-15T00:31:13;8.48;93.62
49489;SHT31;35382;51.484;11.476;2023-01-15T00:32:55;8.49;93.54
49489;SHT31;35382;51.484;11.476;2023-01-15T00:34:37;8.51;93.35
49489;SHT31;35382;51.484;11.476;2023-01-15T00:36:18;8.55;93.21
49489;SHT31;35382;51.484;11.476;2023-01-15T00:37:59;8.52;93.45
49489;SHT31;35382;51.484;11.476;2023-01-15T00:39:40;8.49;93.52
49489;SHT31;35382;51.484;11.476;2023-01-15T00:41:23;8.54;93.21
49489;SHT31;35382;51.484;11.476;2023-01-15T00:43:04;8.48;93.58
49489;SHT31;35382;51.484;11.476;2023-01-15T00:44:45;8.49;93.49
49489;SHT31;35382;51.484;11.476;2023-01-15T00:46:26;8.54;93.21
49489;SHT31;35382;51.484;11.476;2023-01-15T00:48:07;8.55;93.15
49489;SHT31;35382;51.484;11.476;2023-01-15T00:49:49;8.54;93.22
49489;SHT31;35382;51.484;11.476;2023-01-15T00:51:31;8.51;93.28
49489;SHT31;35382;51.484;11.476;2023-01-15T00:53:12;8.52;93.27
49489;SHT31;35382;51.484;11.476;2023-01-15T00:54:53;8.51;93.30
49489;SHT31;35382;51.484;11.476;2023-01-15T00:56:34;8.52;93.18
49489;SHT31;35382;51.484;11.476;2023-01-15T00:58:17;8.51;93.33
49489;SHT31;35382;51.484;11.476;2023-01-15T00:59:58;8.52;93.05
49489;SHT31;35382;51.484;11.476;2023-01-15T01:01:40;8.52;93.06
49489;SHT31;35382;51.484;11.476;2023-01-15T01:03:21;8.55;92.94
49489;SHT31;35382;51.484;11.476;2023-01-15T01:05:03;8.55;92.82
49489;SHT31;35382;51.484;11.476;2023-01-15T01:06:44;8.55;92.92
49489;SHT31;35382;51.484;11.476;2023-01-15T01:08:25;8.62;92.43
49489;SHT31;35382;51.484;11.476;2023-01-15T01:10:07;8.67;92.28
49489;SHT31;35382;51.484;11.476;2023-01-15T01:11:50;8.69;92.27
49489;SHT31;35382;51.484;11.476;2023-01-15T01:13:32;8.73;92.00
49489;SHT31;35382;51.484;11.476;2023-01-15T01:15:13;8.76;92.08
49489;SHT31;35382;51.484;11.476;2023-01-15T01:16:54;8.71;92.38
49489;SHT31;35382;51.484;11.476;2023-01-15T01:18:35;8.72;92.26
49489;SHT31;35382;51.484;11.476;2023-01-15T01:20:17;8.73;92.31
49489;SHT31;35382;51.484;11.476;2023-01-15T01:22:02;8.71;92.38
49489;SHT31;35382;51.484;11.476;2023-01-15T01:23:43;8.81;91.94
49489;SHT31;35382;51.484;11.476;2023-01-15T01:25:24;8.82;92.14
49489;SHT31;35382;51.484;11.476;2023-01-15T01:27:05;8.81;92.34
49489;SHT31;35382;51.484;11.476;2023-01-15T01:28:51;8.81;92.48
49489;SHT31;35382;51.484;11.476;2023-01-15T01:30:32;8.71;93.12
49489;SHT31;35382;51.484;11.476;2023-01-15T01:32:13;8.68;93.38
49489;SHT31;35382;51.484;11.476;2023-01-15T01:33:56;8.62;93.71
49489;SHT31;35382;51.484;11.476;2023-01-15T01:35:37;8.61;93.69
49489;SHT31;35382;51.484;11.476;2023-01-15T01:37:18;8.61;93.84
49489;SHT31;35382;51.484;11.476;2023-01-15T01:39:00;8.54;94.34
49489;SHT31;35382;51.484;11.476;2023-01-15T01:40:42;8.54;94.81
49489;SHT31;35382;51.484;11.476;2023-01-15T01:42:23;8.44;95.16
49489;SHT31;35382;51.484;11.476;2023-01-15T01:46:14;8.38;95.73
49489;SHT31;35382;51.484;11.476;2023-01-15T01:47:58;8.38;95.87
49489;SHT31;35382;51.484;11.476;2023-01-15T01:49:43;8.38;95.81
49489;SHT31;35382;51.484;11.476;2023-01-15T01:51:29;8.38;96.02
49489;SHT31;35382;51.484;11.476;2023-01-15T01:53:17;8.38;95.90
49489;SHT31;35382;51.484;11.476;2023-01-15T01:55:00;8.36;96.01
49489;SHT31;35382;51.484;11.476;2023-01-15T01:56:42;8.36;96.09
49489;SHT31;35382;51.484;11.476;2023-01-15T01:58:27;8.34;96.01
49489;SHT31;35382;51.484;11.476;2023-01-15T02:00:10;8.40;95.84
49489;SHT31;35382;51.484;11.476;2023-01-15T02:01:55;8.37;96.07
49489;SHT31;35382;51.484;11.476;2023-01-15T02:03:37;8.38;96.08
49489;SHT31;35382;51.484;11.476;2023-01-15T02:05:30;8.37;96.09
49489;SHT31;35382;51.484;11.476;2023-01-15T02:07:12;8.37;96.05
49489;SHT31;35382;51.484;11.476;2023-01-15T02:08:53;8.42;96.04
49489;SHT31;35382;51.484;11.476;2023-01-15T02:10:34;8.42;96.06
49489;SHT31;35382;51.484;11.476;2023-01-15T02:12:25;8.45;96.16
49489;SHT31;35382;51.484;11.476;2023-01-15T02:16:14;8.45;96.44
49489;SHT31;35382;51.484;11.476;2023-01-15T02:18:05;8.41;96.80
49489;SHT31;35382;51.484;11.476;2023-01-15T02:21:52;8.41;97.00
49489;SHT31;35382;51.484;11.476;2023-01-15T02:27:37;8.42;97.44
49489;SHT31;35382;51.484;11.476;2023-01-15T02:29:28;8.41;97.57
49489;SHT31;35382;51.484;11.476;2023-01-15T02:31:16;8.40;97.54
49489;SHT31;35382;51.484;11.476;2023-01-15T02:33:09;8.38;97.82
49489;SHT31;35382;51.484;11.476;2023-01-15T02:34:54;8.37;98.06
49489;SHT31;35382;51.484;11.476;2023-01-15T02:36:40;8.33;98.24
49489;SHT31;35382;51.484;11.476;2023-01-15T02:38:28;8.33;98.42
49489;SHT31;35382;51.484;11.476;2023-01-15T02:40:14;8.33;98.50
49489;SHT31;35382;51.484;11.476;2023-01-15T02:41:59;8.31;98.56
49489;SHT31;35382;51.484;11.476;2023-01-15T02:43:50;8.30;98.57
49489;SHT31;35382;51.484;11.476;2023-01-15T02:45:37;8.31;98.67
49489;SHT31;35382;51.484;11.476;2023-01-15T02:47:28;8.33;98.80
49489;SHT31;35382;51.484;11.476;2023-01-15T02:49:15;8.31;98.74
49489;SHT31;35382;51.484;11.476;2023-01-15T02:51:04;8.34;98.73
49489;SHT31;35382;51.484;11.476;2023-01-15T02:52:51;8.33;98.82
49489;SHT31;35382;51.484;11.476;2023-01-15T02:54:47;8.37;98.88
49489;SHT31;35382;51.484;11.476;2023-01-15T02:56:32;8.37;98.95
49489;SHT31;35382;51.484;11.476;2023-01-15T02:58:20;8.37;98.91
49489;SHT31;35382;51.484;11.476;2023-01-15T03:00:05;8.38;98.78
49489;SHT31;35382;51.484;11.476;2023-01-15T03:01:58;8.38;98.84
49489;SHT31;35382;51.484;11.476;2023-01-15T03:03:51;8.40;98.85
49489;SHT31;35382;51.484;11.476;2023-01-15T03:05:39;8.37;98.82
49489;SHT31;35382;51.484;11.476;2023-01-15T03:07:41;8.41;98.65
49489;SHT31;35382;51.484;11.476;2023-01-15T03:09:25;8.42;98.51
49489;SHT31;35382;51.484;11.476;2023-01-15T03:11:17;8.40;98.48
49489;SHT31;35382;51.484;11.476;2023-01-15T03:13:03;8.40;98.19
49489;SHT31;35382;51.484;11.476;2023-01-15T03:15:13;8.37;98.28
49489;SHT31;35382;51.484;11.476;2023-01-15T03:17:26;8.38;97.79
49489;SHT31;35382;51.484;11.476;2023-01-15T03:19:26;8.36;97.66
49489;SHT31;35382;51.484;11.476;2023-01-15T03:21:12;8.37;97.59
49489;SHT31;35382;51.484;11.476;2023-01-15T03:22:58;8.36;97.61
49489;SHT31;35382;51.484;11.476;2023-01-15T03:24:51;8.34;97.55
49489;SHT31;35382;51.484;11.476;2023-01-15T03:26:34;8.33;97.34
49489;SHT31;35382;51.484;11.476;2023-01-15T03:28:20;8.33;97.30
49489;SHT31;35382;51.484;11.476;2023-01-15T03:30:23;8.28;97.26
49489;SHT31;35382;51.484;11.476;2023-01-15T03:32:06;8.28;97.21
49489;SHT31;35382;51.484;11.476;2023-01-15T03:33:47;8.26;97.08
49489;SHT31;35382;51.484;11.476;2023-01-15T03:37:29;8.26;96.52
49489;SHT31;35382;51.484;11.476;2023-01-15T03:39:11;8.26;96.33
49489;SHT31;35382;51.484;11.476;2023-01-15T03:41:18;8.27;96.00
49489;SHT31;35382;51.484;11.476;2023-01-15T03:43:11;8.15;96.83
49489;SHT31;35382;51.484;11.476;2023-01-15T03:47:05;8.15;96.73
49489;SHT31;35382;51.484;11.476;2023-01-15T03:54:59;8.00;96.89
49489;SHT31;35382;51.484;11.476;2023-01-15T03:56:57;7.98;96.51
49489;SHT31;35382;51.484;11.476;2023-01-15T04:00:55;7.93;96.58
49489;SHT31;35382;51.484;11.476;2023-01-15T04:02:40;7.94;95.79
49489;SHT31;35382;51.484;11.476;2023-01-15T04:04:25;7.95;96.04
49489;SHT31;35382;51.484;11.476;2023-01-15T04:06:08;7.89;96.28
49489;SHT31;35382;51.484;11.476;2023-01-15T04:07:53;7.90;95.85
49489;SHT31;35382;51.484;11.476;2023-01-15T04:09:37;7.86;95.68
49489;SHT31;35382;51.484;11.476;2023-01-15T04:11:22;7.80;95.42
49489;SHT31;35382;51.484;11.476;2023-01-15T04:13:06;7.76;95.43
49489;SHT31;35382;51.484;11.476;2023-01-15T04:14:47;7.76;94.77
49489;SHT31;35382;51.484;11.476;2023-01-15T04:16:35;7.77;94.85
49489;SHT31;35382;51.484;11.476;2023-01-15T04:18:18;7.70;93.93
49489;SHT31;35382;51.484;11.476;2023-01-15T04:19:59;7.62;93.86
49489;SHT31;35382;51.484;11.476;2023-01-15T04:21:40;7.55;93.80
49489;SHT31;35382;51.484;11.476;2023-01-15T04:23:22;7.53;94.03
49489;SHT31;35382;51.484;11.476;2023-01-15T04:25:04;7.47;93.97
49489;SHT31;35382;51.484;11.476;2023-01-15T04:26:46;7.43;93.69
49489;SHT31;35382;51.484;11.476;2023-01-15T04:28:27;7.43;93.72
49489;SHT31;35382;51.484;11.476;2023-01-15T04:30:09;7.35;93.98
49489;SHT31;35382;51.484;11.476;2023-01-15T04:31:50;7.35;93.99
49489;SHT31;35382;51.484;11.476;2023-01-15T04:33:37;7.32;94.61
49489;SHT31;35382;51.484;11.476;2023-01-15T04:35:19;7.29;94.65
49489;SHT31;35382;51.484;11.476;2023-01-15T04:37:00;7.39;94.32
49489;SHT31;35382;51.484;11.476;2023-01-15T04:38:41;7.42;94.19
49489;SHT31;35382;51.484;11.476;2023-01-15T04:40:23;7.18;93.65
49489;SHT31;35382;51.484;11.476;2023-01-15T04:42:23;6.96;94.71
49489;SHT31;35382;51.484;11.476;2023-01-15T04:44:22;6.81;94.94
49489;SHT31;35382;51.484;11.476;2023-01-15T04:46:07;6.75;95.05
49489;SHT31;35382;51.484;11.476;2023-01-15T04:47:48;6.71;94.92
49489;SHT31;35382;51.484;11.476;2023-01-15T04:49:29;6.69;95.32
49489;SHT31;35382;51.484;11.476;2023-01-15T04:51:10;6.48;95.51
49489;SHT31;35382;51.484;11.476;2023-01-15T04:52:51;6.42;95.68
49489;SHT31;35382;51.484;11.476;2023-01-15T04:54:32;6.45;94.94
49489;SHT31;35382;51.484;11.476;2023-01-15T04:56:13;6.47;94.43
49489;SHT31;35382;51.484;11.476;2023-01-15T04:57:54;6.47;92.43
49489;SHT31;35382;51.484;11.476;2023-01-15T04:59:36;6.30;89.62
49489;SHT31;35382;51.484;11.476;2023-01-15T05:01:17;6.18;89.86
49489;SHT31;35382;51.484;11.476;2023-01-15T05:02:59;6.13;90.31
49489;SHT31;35382;51.484;11.476;2023-01-15T05:04:40;6.01;90.69
49489;SHT31;35382;51.484;11.476;2023-01-15T05:06:21;5.97;90.61
49489;SHT31;35382;51.484;11.476;2023-01-15T05:08:02;5.87;91.47
49489;SHT31;35382;51.484;11.476;2023-01-15T05:09:43;5.83;90.63
49489;SHT31;35382;51.484;11.476;2023-01-15T05:11:25;5.81;91.20
49489;SHT31;35382;51.484;11.476;2023-01-15T05:13:06;5.74;90.49
49489;SHT31;35382;51.484;11.476;2023-01-15T05:14:47;5.76;90.67
49489;SHT31;35382;51.484;11.476;2023-01-15T05:16:28;5.74;90.90
49489;SHT31;35382;51.484;11.476;2023-01-15T05:18:13;5.69;90.99
49489;SHT31;35382;51.484;11.476;2023-01-15T05:19:54;5.63;91.20
49489;SHT31;35382;51.484;11.476;2023-01-15T05:21:39;5.67;90.53
49489;SHT31;35382;51.484;11.476;2023-01-15T05:23:20;5.57;89.76
49489;SHT31;35382;51.484;11.476;2023-01-15T05:25:02;5.53;89.98
49489;SHT31;35382;51.484;11.476;2023-01-15T05:26:43;5.55;89.69
49489;SHT31;35382;51.484;11.476;2023-01-15T05:28:24;5.57;87.12
49489;SHT31;35382;51.484;11.476;2023-01-15T05:30:06;5.49;86.06
49489;SHT31;35382;51.484;11.476;2023-01-15T05:31:47;5.45;85.32
49489;SHT31;35382;51.484;11.476;2023-01-15T05:33:28;5.39;85.49
49489;SHT31;35382;51.484;11.476;2023-01-15T05:35:09;5.29;87.04
49489;SHT31;35382;51.484;11.476;2023-01-15T05:36:50;5.28;86.36
49489;SHT31;35382;51.484;11.476;2023-01-15T05:38:32;5.23;86.24
49489;SHT31;35382;51.484;11.476;2023-01-15T05:40:13;5.18;86.24
49489;SHT31;35382;51.484;11.476;2023-01-15T05:41:54;5.21;85.42
49489;SHT31;35382;51.484;11.476;2023-01-15T05:43:35;5.11;85.74
49489;SHT31;35382;51.484;11.476;2023-01-15T05:45:16;5.18;85.05
49489;SHT31;35382;51.484;11.476;2023-01-15T05:47:00;5.09;86.03
49489;SHT31;35382;51.484;11.476;2023-01-15T05:48:48;4.98;87.96
49489;SHT31;35382;51.484;11.476;2023-01-15T05:50:29;5.01;86.28
49489;SHT31;35382;51.484;11.476;2023-01-15T05:52:10;5.05;85.05
49489;SHT31;35382;51.484;11.476;2023-01-15T05:53:51;5.02;86.47
49489;SHT31;35382;51.484;11.476;2023-01-15T05:55:32;4.96;86.90
49489;SHT31;35382;51.484;11.476;2023-01-15T05:57:13;4.89;87.37
49489;SHT31;35382;51.484;11.476;2023-01-15T05:58:54;4.93;86.81
49489;SHT31;35382;51.484;11.476;2023-01-15T06:00:35;4.91;87.57
49489;SHT31;35382;51.484;11.476;2023-01-15T06:02:16;4.91;87.10
49489;SHT31;35382;51.484;11.476;2023-01-15T06:03:58;4.88;87.71
49489;SHT31;35382;51.484;11.476;2023-01-15T06:05:39;4.89;87.82
49489;SHT31;35382;51.484;11.476;2023-01-15T06:07:21;4.82;87.77
49489;SHT31;35382;51.484;11.476;2023-01-15T06:09:04;4.89;87.66
49489;SHT31;35382;51.484;11.476;2023-01-15T06:10:46;4.88;88.57
49489;SHT31;35382;51.484;11.476;2023-01-15T06:12:27;4.89;87.97
49489;SHT31;35382;51.484;11.476;2023-01-15T06:14:10;4.93;88.05
49489;SHT31;35382;51.484;11.476;2023-01-15T06:15:51;4.88;88.35
49489;SHT31;35382;51.484;11.476;2023-01-15T06:17:33;4.88;89.15
49489;SHT31;35382;51.484;11.476;2023-01-15T06:19:14;4.88;89.48
49489;SHT31;35382;51.484;11.476;2023-01-15T06:20:55;4.82;89.56
49489;SHT31;35382;51.484;11.476;2023-01-15T06:22:36;4.75;90.27
49489;SHT31;35382;51.484;11.476;2023-01-15T06:24:18;4.78;89.93
49489;SHT31;35382;51.484;11.476;2023-01-15T06:26:04;4.69;90.50
49489;SHT31;35382;51.484;11.476;2023-01-15T06:27:45;4.65;90.49
49489;SHT31;35382;51.484;11.476;2023-01-15T06:29:28;4.69;89.76
49489;SHT31;35382;51.484;11.476;2023-01-15T06:31:12;4.84;88.66
49489;SHT31;35382;51.484;11.476;2023-01-15T06:32:54;4.85;89.05
49489;SHT31;35382;51.484;11.476;2023-01-15T06:34:35;4.84;89.57
49489;SHT31;35382;51.484;11.476;2023-01-15T06:36:19;4.85;89.84
49489;SHT31;35382;51.484;11.476;2023-01-15T06:38:01;4.88;89.97
49489;SHT31;35382;51.484;11.476;2023-01-15T06:39:42;4.96;90.18
49489;SHT31;35382;51.484;11.476;2023-01-15T06:41:25;4.91;88.46
49489;SHT31;35382;51.484;11.476;2023-01-15T06:43:25;4.84;88.52
49489;SHT31;35382;51.484;11.476;2023-01-15T06:45:25;4.91;89.20
49489;SHT31;35382;51.484;11.476;2023-01-15T06:47:25;4.75;89.63
49489;SHT31;35382;51.484;11.476;2023-01-15T06:49:06;4.68;89.68
49489;SHT31;35382;51.484;11.476;2023-01-15T06:50:47;4.69;90.39
49489;SHT31;35382;51.484;11.476;2023-01-15T06:52:28;4.77;90.62
49489;SHT31;35382;51.484;11.476;2023-01-15T06:54:09;4.88;89.52
49489;SHT31;35382;51.484;11.476;2023-01-15T06:55:50;4.85;89.57
49489;SHT31;35382;51.484;11.476;2023-01-15T06:57:32;4.96;89.10
49489;SHT31;35382;51.484;11.476;2023-01-15T06:59:13;4.92;88.96
49489;SHT31;35382;51.484;11.476;2023-01-15T07:00:54;4.82;88.08
49489;SHT31;35382;51.484;11.476;2023-01-15T07:02:36;4.82;88.95
49489;SHT31;35382;51.484;11.476;2023-01-15T07:04:17;4.78;88.27
49489;SHT31;35382;51.484;11.476;2023-01-15T07:05:58;4.78;88.17
49489;SHT31;35382;51.484;11.476;2023-01-15T07:07:42;4.78;86.32
49489;SHT31;35382;51.484;11.476;2023-01-15T07:09:23;4.84;86.59
49489;SHT31;35382;51.484;11.476;2023-01-15T07:11:07;4.74;87.47
49489;SHT31;35382;51.484;11.476;2023-01-15T07:12:48;4.71;87.05
49489;SHT31;35382;51.484;11.476;2023-01-15T07:14:29;4.71;86.70
49489;SHT31;35382;51.484;11.476;2023-01-15T07:16:11;4.74;85.79
49489;SHT31;35382;51.484;11.476;2023-01-15T07:18:08;4.71;85.83
49489;SHT31;35382;51.484;11.476;2023-01-15T07:19:49;4.69;84.75
49489;SHT31;35382;51.484;11.476;2023-01-15T07:21:30;4.72;84.95
49489;SHT31;35382;51.484;11.476;2023-01-15T07:23:11;4.71;85.90
49489;SHT31;35382;51.484;11.476;2023-01-15T07:24:52;4.64;87.12
49489;SHT31;35382;51.484;11.476;2023-01-15T07:26:33;4.61;87.60
49489;SHT31;35382;51.484;11.476;2023-01-15T07:28:15;4.50;87.37
49489;SHT31;35382;51.484;11.476;2023-01-15T07:29:56;4.51;87.14
49489;SHT31;35382;51.484;11.476;2023-01-15T07:31:37;4.48;86.68
49489;SHT31;35382;51.484;11.476;2023-01-15T07:33:18;4.48;87.21
49489;SHT31;35382;51.484;11.476;2023-01-15T07:34:59;4.45;86.87
49489;SHT31;35382;51.484;11.476;2023-01-15T07:36:41;4.45;86.45
49489;SHT31;35382;51.484;11.476;2023-01-15T07:38:22;4.44;86.92
49489;SHT31;35382;51.484;11.476;2023-01-15T07:40:03;4.37;87.35
49489;SHT31;35382;51.484;11.476;2023-01-15T07:41:44;4.33;87.19
49489;SHT31;35382;51.484;11.476;2023-01-15T07:43:48;4.24;87.74
49489;SHT31;35382;51.484;11.476;2023-01-15T07:45:48;4.20;87.65
49489;SHT31;35382;51.484;11.476;2023-01-15T07:47:48;4.20;87.57
49489;SHT31;35382;51.484;11.476;2023-01-15T07:49:48;4.21;87.99
49489;SHT31;35382;51.484;11.476;2023-01-15T07:51:29;4.16;88.34
49489;SHT31;35382;51.484;11.476;2023-01-15T07:53:10;4.18;87.79
49489;SHT31;35382;51.484;11.476;2023-01-15T07:54:51;4.11;88.34
49489;SHT31;35382;51.484;11.476;2023-01-15T07:56:32;4.10;88.56
49489;SHT31;35382;51.484;11.476;2023-01-15T07:58:14;4.13;88.13
49489;SHT31;35382;51.484;11.476;2023-01-15T07:59:55;4.11;88.09
49489;SHT31;35382;51.484;11.476;2023-01-15T08:01:36;4.07;89.32
49489;SHT31;35382;51.484;11.476;2023-01-15T08:03:17;4.06;88.95
49489;SHT31;35382;51.484;11.476;2023-01-15T08:04:58;3.99;89.26
49489;SHT31;35382;51.484;11.476;2023-01-15T08:06:39;3.97;89.31
49489;SHT31;35382;51.484;11.476;2023-01-15T08:08:20;3.90;89.66
49489;SHT31;35382;51.484;11.476;2023-01-15T08:10:01;3.99;89.52
49489;SHT31;35382;51.484;11.476;2023-01-15T08:11:42;3.93;90.06
49489;SHT31;35382;51.484;11.476;2023-01-15T08:13:42;3.93;89.98
49489;SHT31;35382;51.484;11.476;2023-01-15T08:15:42;3.96;89.77
49489;SHT31;35382;51.484;11.476;2023-01-15T08:17:23;4.00;89.65
49489;SHT31;35382;51.484;11.476;2023-01-15T08:19:04;3.96;89.87
49489;SHT31;35382;51.484;11.476;2023-01-15T08:20:45;4.03;89.71
49489;SHT31;35382;51.484;11.476;2023-01-15T08:22:26;3.99;89.71
49489;SHT31;35382;51.484;11.476;2023-01-15T08:24:07;3.99;89.92
49489;SHT31;35382;51.484;11.476;2023-01-15T08:25:48;3.97;90.36
49489;SHT31;35382;51.484;11.476;2023-01-15T08:27:30;3.96;90.57
49489;SHT31;35382;51.484;11.476;2023-01-15T08:29:11;3.97;90.92
49489;SHT31;35382;51.484;11.476;2023-01-15T08:30:52;3.93;90.84
49489;SHT31;35382;51.484;11.476;2023-01-15T08:32:33;3.94;90.90
49489;SHT31;35382;51.484;11.476;2023-01-15T08:34:14;3.97;91.05
49489;SHT31;35382;51.484;11.476;2023-01-15T08:35:56;3.99;91.07
49489;SHT31;35382;51.484;11.476;2023-01-15T08:37:38;3.99;90.99
49489;SHT31;35382;51.484;11.476;2023-01-15T08:39:19;3.99;91.04
49489;SHT31;35382;51.484;11.476;2023-01-15T08:41:00;4.01;90.91
49489;SHT31;35382;51.484;11.476;2023-01-15T08:42:43;4.09;90.96
49489;SHT31;35382;51.484;11.476;2023-01-15T08:44:24;4.09;90.59
49489;SHT31;35382;51.484;11.476;2023-01-15T08:46:05;4.17;90.50
49489;SHT31;35382;51.484;11.476;2023-01-15T08:47:46;4.23;90.52
49489;SHT31;35382;51.484;11.476;2023-01-15T08:49:28;4.21;90.53
49489;SHT31;35382;51.484;11.476;2023-01-15T08:51:10;4.27;90.53
49489;SHT31;35382;51.484;11.476;2023-01-15T08:52:51;4.34;89.95
49489;SHT31;35382;51.484;11.476;2023-01-15T08:54:33;4.38;89.80
49489;SHT31;35382;51.484;11.476;2023-01-15T08:56:18;4.43;90.20
49489;SHT31;35382;51.484;11.476;2023-01-15T08:58:00;4.47;90.19
49489;SHT31;35382;51.484;11.476;2023-01-15T08:59:41;4.55;90.49
49489;SHT31;35382;51.484;11.476;2023-01-15T09:01:25;4.55;90.75
49489;SHT31;35382;51.484;11.476;2023-01-15T09:03:06;4.57;89.99
49489;SHT31;35382;51.484;11.476;2023-01-15T09:04:47;4.57;89.74
49489;SHT31;35382;51.484;11.476;2023-01-15T09:06:28;4.57;89.97
49489;SHT31;35382;51.484;11.476;2023-01-15T09:08:10;4.47;89.83
49489;SHT31;35382;51.484;11.476;2023-01-15T09:09:51;4.53;90.22
49489;SHT31;35382;51.484;11.476;2023-01-15T09:11:32;4.51;90.73
49489;SHT31;35382;51.484;11.476;2023-01-15T09:13:14;4.50;90.09
49489;SHT31;35382;51.484;11.476;2023-01-15T09:14:55;4.50;90.28
49489;SHT31;35382;51.484;11.476;2023-01-15T09:16:37;4.48;89.96
49489;SHT31;35382;51.484;11.476;2023-01-15T09:18:19;4.54;90.21
49489;SHT31;35382;51.484;11.476;2023-01-15T09:20:00;4.54;90.39
49489;SHT31;35382;51.484;11.476;2023-01-15T09:21:42;4.55;89.90
49489;SHT31;35382;51.484;11.476;2023-01-15T09:23:24;4.54;90.18
49489;SHT31;35382;51.484;11.476;2023-01-15T09:25:05;4.61;90.14
49489;SHT31;35382;51.484;11.476;2023-01-15T09:26:46;4.58;90.40
49489;SHT31;35382;51.484;11.476;2023-01-15T09:28:28;4.65;90.24
49489;SHT31;35382;51.484;11.476;2023-01-15T09:30:16;4.65;89.74
49489;SHT31;35382;51.484;11.476;2023-01-15T09:31:57;4.77;90.05
49489;SHT31;35382;51.484;11.476;2023-01-15T09:33:38;4.75;89.91
49489;SHT31;35382;51.484;11.476;2023-01-15T09:35:20;4.87;89.41
49489;SHT31;35382;51.484;11.476;2023-01-15T09:37:02;4.88;88.49
49489;SHT31;35382;51.484;11.476;2023-01-15T09:38:44;4.93;89.07
49489;SHT31;35382;51.484;11.476;2023-01-15T09:40:56;4.96;88.70
49489;SHT31;35382;51.484;11.476;2023-01-15T09:42:45;4.99;88.24
49489;SHT31;35382;51.484;11.476;2023-01-15T09:46:29;5.11;88.42
49489;SHT31;35382;51.484;11.476;2023-01-15T09:48:32;5.21;88.70
49489;SHT31;35382;51.484;11.476;2023-01-15T09:52:29;5.23;87.75
49489;SHT31;35382;51.484;11.476;2023-01-15T09:54:23;5.23;87.40
49489;SHT31;35382;51.484;11.476;2023-01-15T09:56:22;5.25;87.66
49489;SHT31;35382;51.484;11.476;2023-01-15T09:58:05;5.28;88.52
49489;SHT31;35382;51.484;11.476;2023-01-15T09:59:49;5.22;87.33
49489;SHT31;35382;51.484;11.476;2023-01-15T10:01:33;5.28;86.64
49489;SHT31;35382;51.484;11.476;2023-01-15T10:06:07;5.38;87.27
49489;SHT31;35382;51.484;11.476;2023-01-15T10:09:14;5.35;87.07
49489;SHT31;35382;51.484;11.476;2023-01-15T10:13:16;5.29;86.32
49489;SHT31;35382;51.484;11.476;2023-01-15T10:17:26;5.25;86.79
49489;SHT31;35382;51.484;11.476;2023-01-15T10:19:09;5.23;86.37
49489;SHT31;35382;51.484;11.476;2023-01-15T10:24:38;5.18;86.35
49489;SHT31;35382;51.484;11.476;2023-01-15T10:26:30;5.19;86.43
49489;SHT31;35382;51.484;11.476;2023-01-15T10:28:19;5.16;87.39
49489;SHT31;35382;51.484;11.476;2023-01-15T10:30:24;5.09;87.28
49489;SHT31;35382;51.484;11.476;2023-01-15T10:34:41;5.07;86.41
49489;SHT31;35382;51.484;11.476;2023-01-15T10:36:41;5.07;87.42
49489;SHT31;35382;51.484;11.476;2023-01-15T10:38:50;5.08;87.83
49489;SHT31;35382;51.484;11.476;2023-01-15T10:44:46;4.99;85.73
49489;SHT31;35382;51.484;11.476;2023-01-15T10:46:32;5.01;86.32
49489;SHT31;35382;51.484;11.476;2023-01-15T10:48:51;4.96;86.84
49489;SHT31;35382;51.484;11.476;2023-01-15T10:50:34;4.98;86.12
49489;SHT31;35382;51.484;11.476;2023-01-15T10:52:30;4.99;87.32
49489;SHT31;35382;51.484;11.476;2023-01-15T10:54:27;4.99;87.03
49489;SHT31;35382;51.484;11.476;2023-01-15T10:56:15;4.92;87.30
49489;SHT31;35382;51.484;11.476;2023-01-15T11:00:00;4.92;87.51
49489;SHT31;35382;51.484;11.476;2023-01-15T11:01:42;4.92;87.34
49489;SHT31;35382;51.484;11.476;2023-01-15T11:03:37;4.92;87.55
49489;SHT31;35382;51.484;11.476;2023-01-15T11:05:20;4.88;87.55
49489;SHT31;35382;51.484;11.476;2023-01-15T11:07:01;4.92;87.54
49489;SHT31;35382;51.484;11.476;2023-01-15T11:08:55;4.93;86.96
49489;SHT31;35382;51.484;11.476;2023-01-15T11:10:37;4.99;87.81
49489;SHT31;35382;51.484;11.476;2023-01-15T11:12:26;4.95;88.54
49489;SHT31;35382;51.484;11.476;2023-01-15T11:14:45;4.96;87.72
49489;SHT31;35382;51.484;11.476;2023-01-15T11:16:45;4.93;87.98
49489;SHT31;35382;51.484;11.476;2023-01-15T11:18:45;4.93;88.31
49489;SHT31;35382;51.484;11.476;2023-01-15T11:20:46;4.95;87.92
49489;SHT31;35382;51.484;11.476;2023-01-15T11:22:29;4.92;87.50
49489;SHT31;35382;51.484;11.476;2023-01-15T11:24:14;4.91;86.99
49489;SHT31;35382;51.484;11.476;2023-01-15T11:25:58;4.96;87.00
49489;SHT31;35382;51.484;11.476;2023-01-15T11:27:40;4.98;87.34
49489;SHT31;35382;51.484;11.476;2023-01-15T11:29:30;4.99;86.96
49489;SHT31;35382;51.484;11.476;2023-01-15T11:31:14;4.99;87.46
49489;SHT31;35382;51.484;11.476;2023-01-15T11:32:57;4.96;86.88
49489;SHT31;35382;51.484;11.476;2023-01-15T11:34:39;4.95;87.32
49489;SHT31;35382;51.484;11.476;2023-01-15T11:36:23;4.99;86.25
49489;SHT31;35382;51.484;11.476;2023-01-15T11:38:12;5.01;86.90
49489;SHT31;35382;51.484;11.476;2023-01-15T11:39:55;5.04;87.53
49489;SHT31;35382;51.484;11.476;2023-01-15T11:41:37;4.99;87.69
49489;SHT31;35382;51.484;11.476;2023-01-15T11:43:37;4.93;86.63
49489;SHT31;35382;51.484;11.476;2023-01-15T11:45:48;4.98;86.46
49489;SHT31;35382;51.484;11.476;2023-01-15T11:47:52;4.93;86.45
49489;SHT31;35382;51.484;11.476;2023-01-15T11:49:53;4.89;86.38
49489;SHT31;35382;51.484;11.476;2023-01-15T11:51:55;4.89;86.42